Time;durP1;ratioP1;P1;durP2;ratioP2;P2;SDS_P1;SDS_P2;PMS_P1;PMS_P2;Temp;Humidity;BMP_temperature;BMP_pressure;BME280_temperature;BME280_humidity;BME280_pressure;Samples;Min_cycle;Max_cycle;Signal;HPM_P1;HPM_P2
2023/04/26 00:00:21;;;;;;;14.27;13.07;;;;;;;;;;5014110;28;20355;-71
2023/04/26 00:02:47;;;;;;;14.77;13.38;;;;;;;;;;5014715;28;20417;-74
2023/04/26 00:05:13;;;;;;;15.13;13.73;;;;;;;;;;5013330;28;20040;-73
2023/04/26 00:07:38;;;;;;;14.52;13.02;;;;;;;;;;5004612;28;20026;-73
2023/04/26 00:10:07;;;;;;;15.20;13.60;;;;;;;;;;5012918;28;20102;-72
2023/04/26 00:12:32;;;;;;;15.20;13.70;;;;;;;;;;5010767;28;20040;-70
2023/04/26 00:14:58;;;;;;;14.77;13.40;;;;;;;;;;5010346;28;20026;-73
2023/04/26 00:17:24;;;;;;;15.05;13.55;;;;;;;;;;5003489;28;20328;-76
2023/04/26 00:19:49;;;;;;;20.23;13.70;;;;;;;;;;5003299;28;20021;-75
2023/04/26 00:22:15;;;;;;;15.73;14.23;;;;;;;;;;5012155;28;20170;-72
2023/04/26 00:24:40;;;;;;;15.02;13.52;;;;;;;;;;5013539;28;20030;-73
2023/04/26 00:27:09;;;;;;;15.63;13.95;;;;;;;;;;5014930;28;20018;-71
2023/04/26 00:29:34;;;;;;;16.92;15.20;;;;;;;;;;5014628;28;20053;-76
2023/04/26 00:32:00;;;;;;;13.60;12.20;;;;;;;;;;5011801;28;20026;-71
2023/04/26 00:34:30;;;;;;;12.30;11.20;;;;;;;;;;5013092;28;20413;-72
2023/04/26 00:36:56;;;;;;;12.32;11.25;;;;;;;;;;5006957;28;20389;-71
2023/04/26 00:39:21;;;;;;;11.13;10.13;;;;;;;;;;5008974;28;20025;-72
2023/04/26 00:41:46;;;;;;;12.35;11.25;;;;;;;;;;5013292;28;20030;-71
2023/04/26 00:44:12;;;;;;;14.07;12.65;;;;;;;;;;5011948;28;20026;-71
2023/04/26 00:46:37;;;;;;;62.03;40.60;;;;;;;;;;5011910;28;20026;-72
2023/04/26 00:49:03;;;;;;;51.33;36.25;;;;;;;;;;5012774;28;20097;-71
2023/04/26 00:51:28;;;;;;;35.20;26.48;;;;;;;;;;5011418;28;20026;-77
2023/04/26 00:53:53;;;;;;;29.67;23.75;;;;;;;;;;5013253;28;20137;-73
2023/04/26 00:56:20;;;;;;;25.58;22.13;;;;;;;;;;5012882;28;20025;-71
2023/04/26 00:58:45;;;;;;;38.13;26.77;;;;;;;;;;5011684;28;20117;-71
2023/04/26 01:01:12;;;;;;;41.35;28.75;;;;;;;;;;5012197;28;20121;-75
2023/04/26 01:03:37;;;;;;;27.60;22.73;;;;;;;;;;5013195;28;20055;-71
2023/04/26 01:06:03;;;;;;;28.17;21.00;;;;;;;;;;5012222;28;20789;-73
2023/04/26 01:08:28;;;;;;;27.35;22.20;;;;;;;;;;5002333;28;20066;-76
2023/04/26 01:10:53;;;;;;;28.40;21.75;;;;;;;;;;5013596;28;20035;-72
2023/04/26 01:13:20;;;;;;;23.58;19.58;;;;;;;;;;5011983;28;20026;-71
2023/04/26 01:15:45;;;;;;;26.98;22.42;;;;;;;;;;5011939;28;20041;-71
2023/04/26 01:18:11;;;;;;;45.58;36.13;;;;;;;;;;5012086;28;20324;-70
2023/04/26 01:20:36;;;;;;;35.20;27.88;;;;;;;;;;5013281;28;20441;-71
2023/04/26 01:23:02;;;;;;;34.00;25.13;;;;;;;;;;5001891;28;20051;-71
2023/04/26 01:25:27;;;;;;;33.60;24.20;;;;;;;;;;5013864;28;20412;-73
2023/04/26 01:27:53;;;;;;;30.85;23.42;;;;;;;;;;5015115;28;20048;-71
2023/04/26 01:30:18;;;;;;;27.52;23.40;;;;;;;;;;5007941;28;20037;-73
2023/04/26 01:32:43;;;;;;;19.92;16.42;;;;;;;;;;5014295;28;20022;-71
2023/04/26 01:35:09;;;;;;;21.42;17.20;;;;;;;;;;5014819;28;20014;-72
2023/04/26 01:37:34;;;;;;;17.70;15.88;;;;;;;;;;5011617;28;20717;-71
2023/04/26 01:40:00;;;;;;;34.28;28.27;;;;;;;;;;5011626;28;20037;-71
2023/04/26 01:42:25;;;;;;;28.95;25.13;;;;;;;;;;5006543;28;20022;-71
2023/04/26 01:44:50;;;;;;;27.85;22.15;;;;;;;;;;5014083;28;20337;-71
2023/04/26 01:47:16;;;;;;;25.67;22.55;;;;;;;;;;5016305;28;20022;-74
2023/04/26 01:49:41;;;;;;;41.97;34.53;;;;;;;;;;5013361;28;20048;-72
2023/04/26 01:52:06;;;;;;;36.88;31.30;;;;;;;;;;5006175;28;20037;-72
2023/04/26 01:54:32;;;;;;;38.22;30.38;;;;;;;;;;5009844;28;20045;-76
2023/04/26 01:56:57;;;;;;;40.05;34.97;;;;;;;;;;5006042;28;20140;-74
2023/04/26 01:59:22;;;;;;;28.02;22.13;;;;;;;;;;5014469;28;20074;-72
2023/04/26 02:01:48;;;;;;;21.65;19.45;;;;;;;;;;5008496;28;20383;-72
2023/04/26 02:04:13;;;;;;;24.00;21.50;;;;;;;;;;5012951;28;20026;-72
2023/04/26 02:06:40;;;;;;;24.45;20.48;;;;;;;;;;5012227;28;20025;-73
2023/04/26 02:09:08;;;;;;;25.48;21.60;;;;;;;;;;5007379;28;20025;-73
2023/04/26 02:11:33;;;;;;;25.70;23.02;;;;;;;;;;5013531;28;20360;-72
2023/04/26 02:13:58;;;;;;;24.55;22.05;;;;;;;;;;5008695;28;20025;-73
2023/04/26 02:16:24;;;;;;;27.90;23.95;;;;;;;;;;5014854;28;20501;-73
2023/04/26 02:18:49;;;;;;;30.88;24.85;;;;;;;;;;5015330;28;20038;-75
2023/04/26 02:21:17;;;;;;;29.33;25.88;;;;;;;;;;5015926;28;20040;-73
2023/04/26 02:23:43;;;;;;;27.42;24.05;;;;;;;;;;5015167;28;20036;-73
2023/04/26 02:26:08;;;;;;;25.25;20.70;;;;;;;;;;5012366;28;20025;-72
2023/04/26 02:28:34;;;;;;;22.13;19.83;;;;;;;;;;5011874;28;20069;-71
2023/04/26 02:31:00;;;;;;;19.80;17.75;;;;;;;;;;5015897;28;20018;-73
2023/04/26 02:33:26;;;;;;;20.20;18.02;;;;;;;;;;5014825;28;20033;-71
2023/04/26 02:35:51;;;;;;;21.42;19.17;;;;;;;;;;5012222;28;20022;-74
2023/04/26 02:38:16;;;;;;;29.83;24.58;;;;;;;;;;5012735;28;20029;-73
2023/04/26 02:40:42;;;;;;;26.10;23.38;;;;;;;;;;5014386;28;20037;-71
2023/04/26 02:43:09;;;;;;;23.70;21.35;;;;;;;;;;5002821;28;20040;-74
2023/04/26 02:45:39;;;;;;;20.52;18.42;;;;;;;;;;5015267;28;20036;-71
2023/04/26 02:48:05;;;;;;;18.23;16.33;;;;;;;;;;5013420;28;20149;-72
2023/04/26 02:50:30;;;;;;;15.85;14.20;;;;;;;;;;5013985;28;20050;-71
2023/04/26 02:52:55;;;;;;;18.20;14.98;;;;;;;;;;5013987;28;20022;-76
2023/04/26 02:55:21;;;;;;;17.17;15.30;;;;;;;;;;5016059;28;20033;-72
2023/04/26 02:57:46;;;;;;;17.35;14.98;;;;;;;;;;5013553;28;20026;-75
2023/04/26 03:00:12;;;;;;;20.23;17.42;;;;;;;;;;5004601;28;20259;-73
2023/04/26 03:02:38;;;;;;;27.45;23.42;;;;;;;;;;5011191;28;20205;-73
2023/04/26 03:05:03;;;;;;;26.98;23.95;;;;;;;;;;5013800;28;20398;-71
2023/04/26 03:07:30;;;;;;;27.83;23.00;;;;;;;;;;5015122;28;20158;-72
2023/04/26 03:09:55;;;;;;;22.02;18.52;;;;;;;;;;5014500;28;20076;-74
2023/04/26 03:12:21;;;;;;;24.35;20.73;;;;;;;;;;5008942;28;20075;-73
2023/04/26 03:14:46;;;;;;;23.92;21.42;;;;;;;;;;5010217;28;20064;-76
2023/04/26 03:17:11;;;;;;;22.65;18.77;;;;;;;;;;5013352;28;20260;-72
2023/04/26 03:19:37;;;;;;;22.20;19.83;;;;;;;;;;5013833;28;20025;-72
2023/04/26 03:22:02;;;;;;;23.15;20.42;;;;;;;;;;5014069;28;20038;-72
2023/04/26 03:24:27;;;;;;;18.95;17.00;;;;;;;;;;5014800;28;20034;-71
2023/04/26 03:26:53;;;;;;;20.35;18.13;;;;;;;;;;5014239;28;20341;-71
2023/04/26 03:29:18;;;;;;;35.97;25.75;;;;;;;;;;5013466;28;20053;-73
2023/04/26 03:31:43;;;;;;;35.10;28.33;;;;;;;;;;5011963;28;20431;-72
2023/04/26 03:34:09;;;;;;;25.42;20.67;;;;;;;;;;5013793;28;20351;-71
2023/04/26 03:36:34;;;;;;;20.60;17.98;;;;;;;;;;5011160;28;20353;-74
2023/04/26 03:38:59;;;;;;;20.67;17.27;;;;;;;;;;5006694;28;20464;-72
2023/04/26 03:41:25;;;;;;;19.70;17.70;;;;;;;;;;5013939;28;20073;-75
2023/04/26 03:43:50;;;;;;;21.92;19.55;;;;;;;;;;5012639;28;20036;-72
2023/04/26 03:46:16;;;;;;;20.55;17.52;;;;;;;;;;5011219;28;20460;-71
2023/04/26 03:48:41;;;;;;;19.02;17.02;;;;;;;;;;5011393;28;21024;-71
2023/04/26 03:51:06;;;;;;;18.73;16.75;;;;;;;;;;5013263;28;20170;-72
2023/04/26 03:53:32;;;;;;;21.25;17.83;;;;;;;;;;4996148;28;20044;-71
2023/04/26 03:55:57;;;;;;;18.48;16.58;;;;;;;;;;4991202;28;20104;-71
2023/04/26 03:58:25;;;;;;;18.77;14.85;;;;;;;;;;4994971;28;20075;-71
2023/04/26 04:00:51;;;;;;;18.15;15.38;;;;;;;;;;4999837;28;20078;-71
2023/04/26 04:03:16;;;;;;;16.73;15.02;;;;;;;;;;5000424;28;20070;-71
2023/04/26 04:05:42;;;;;;;17.52;15.80;;;;;;;;;;5000597;28;20052;-71
2023/04/26 04:08:07;;;;;;;18.80;16.85;;;;;;;;;;5004245;28;20029;-71
2023/04/26 04:10:33;;;;;;;24.55;15.68;;;;;;;;;;5013076;28;20456;-72
2023/04/26 04:12:58;;;;;;;27.60;23.17;;;;;;;;;;5012609;28;20018;-72
2023/04/26 04:15:24;;;;;;;94.82;75.28;;;;;;;;;;5013011;28;20029;-71
2023/04/26 04:17:49;;;;;;;63.97;57.17;;;;;;;;;;5014243;28;20642;-75
2023/04/26 04:20:15;;;;;;;25.77;23.17;;;;;;;;;;5013606;28;20455;-72
2023/04/26 04:22:40;;;;;;;17.00;15.27;;;;;;;;;;5012647;28;20443;-73
2023/04/26 04:25:06;;;;;;;16.48;14.88;;;;;;;;;;5014472;28;20045;-73
2023/04/26 04:27:32;;;;;;;13.13;11.93;;;;;;;;;;5012811;28;20026;-70
2023/04/26 04:29:57;;;;;;;22.60;18.67;;;;;;;;;;5012976;28;20033;-73
2023/04/26 04:32:23;;;;;;;25.77;19.85;;;;;;;;;;5011331;28;20057;-70
2023/04/26 04:34:50;;;;;;;327.33;196.13;;;;;;;;;;5013658;28;20389;-73
2023/04/26 04:37:17;;;;;;;297.95;172.20;;;;;;;;;;5013746;28;20025;-72
2023/04/26 04:39:42;;;;;;;114.43;76.97;;;;;;;;;;5010962;28;20071;-71
2023/04/26 04:42:09;;;;;;;102.07;78.22;;;;;;;;;;5003150;28;20057;-71
2023/04/26 04:44:35;;;;;;;413.30;254.80;;;;;;;;;;5006129;28;20045;-73
2023/04/26 04:47:01;;;;;;;126.55;85.93;;;;;;;;;;5012298;28;20129;-71
2023/04/26 04:49:26;;;;;;;104.85;70.13;;;;;;;;;;5004813;28;20101;-71
2023/04/26 04:51:52;;;;;;;113.82;73.55;;;;;;;;;;5014178;28;20376;-73
2023/04/26 04:54:17;;;;;;;105.38;69.13;;;;;;;;;;5011203;28;20068;-71
2023/04/26 04:56:43;;;;;;;95.20;64.50;;;;;;;;;;5012463;28;20033;-72
2023/04/26 04:59:08;;;;;;;81.82;61.42;;;;;;;;;;5013129;28;20029;-72
2023/04/26 05:01:35;;;;;;;66.43;52.30;;;;;;;;;;5013594;28;20093;-72
2023/04/26 05:04:01;;;;;;;79.47;65.28;;;;;;;;;;5015677;28;20525;-71
2023/04/26 05:06:26;;;;;;;45.80;38.60;;;;;;;;;;5016593;28;20041;-72
2023/04/26 05:08:52;;;;;;;36.35;30.27;;;;;;;;;;5017554;28;20046;-71
2023/04/26 05:11:18;;;;;;;38.50;24.30;;;;;;;;;;5017032;28;20037;-72
2023/04/26 05:13:43;;;;;;;24.88;22.20;;;;;;;;;;5016753;28;20401;-76
2023/04/26 05:16:08;;;;;;;23.83;19.25;;;;;;;;;;5015833;28;20041;-76
2023/04/26 05:18:34;;;;;;;24.85;21.13;;;;;;;;;;5015026;28;20797;-71
2023/04/26 05:20:59;;;;;;;23.25;20.85;;;;;;;;;;5016449;28;20033;-73
2023/04/26 05:23:25;;;;;;;22.92;20.45;;;;;;;;;;5017922;28;20080;-72
2023/04/26 05:25:50;;;;;;;26.10;23.30;;;;;;;;;;5015950;28;20049;-71
2023/04/26 05:28:15;;;;;;;38.53;33.33;;;;;;;;;;5015418;28;20041;-72
2023/04/26 05:30:41;;;;;;;40.40;31.08;;;;;;;;;;5016116;28;20025;-71
2023/04/26 05:33:06;;;;;;;27.08;24.15;;;;;;;;;;5014616;28;20108;-72
2023/04/26 05:35:32;;;;;;;26.77;22.35;;;;;;;;;;5017069;28;20067;-71
2023/04/26 05:37:57;;;;;;;23.88;21.33;;;;;;;;;;5016137;28;20388;-73
2023/04/26 05:40:22;;;;;;;31.55;28.40;;;;;;;;;;5015197;28;20070;-71
2023/04/26 05:42:49;;;;;;;27.33;21.02;;;;;;;;;;5014546;28;20135;-76
2023/04/26 05:45:14;;;;;;;34.85;24.88;;;;;;;;;;5016199;28;20427;-71
2023/04/26 05:47:39;;;;;;;29.65;24.63;;;;;;;;;;5014852;28;20516;-72
2023/04/26 05:50:05;;;;;;;34.95;26.80;;;;;;;;;;5015391;28;20041;-74
2023/04/26 05:52:31;;;;;;;33.53;25.30;;;;;;;;;;5014668;28;20040;-74
2023/04/26 05:54:56;;;;;;;27.63;22.77;;;;;;;;;;5014061;28;20356;-73
2023/04/26 05:57:22;;;;;;;18.95;17.15;;;;;;;;;;5015909;28;20284;-72
2023/04/26 05:59:47;;;;;;;21.48;17.23;;;;;;;;;;5013645;28;20072;-74
2023/04/26 06:02:12;;;;;;;20.85;17.30;;;;;;;;;;5016758;28;20379;-72
2023/04/26 06:04:38;;;;;;;21.10;19.00;;;;;;;;;;5003205;28;20088;-71
2023/04/26 06:07:03;;;;;;;22.23;19.80;;;;;;;;;;5004746;28;20493;-71
2023/04/26 06:09:30;;;;;;;28.23;25.38;;;;;;;;;;5016212;28;20094;-72
2023/04/26 06:11:55;;;;;;;23.55;20.20;;;;;;;;;;5013954;28;20043;-72
2023/04/26 06:14:21;;;;;;;21.30;19.23;;;;;;;;;;5014610;28;20445;-75
2023/04/26 06:16:46;;;;;;;25.30;22.60;;;;;;;;;;5016684;28;20078;-71
2023/04/26 06:19:11;;;;;;;26.88;21.13;;;;;;;;;;5014268;28;20468;-71
2023/04/26 06:21:37;;;;;;;27.35;22.17;;;;;;;;;;5008676;28;20033;-75
2023/04/26 06:24:02;;;;;;;35.65;29.40;;;;;;;;;;5011064;28;20034;-72
2023/04/26 06:26:28;;;;;;;35.20;27.40;;;;;;;;;;5015389;28;20034;-72
2023/04/26 06:28:54;;;;;;;35.17;25.63;;;;;;;;;;5009325;28;20049;-72
2023/04/26 06:31:20;;;;;;;17.10;14.57;;;;;;;;;;5002655;28;20302;-71
2023/04/26 06:33:46;;;;;;;7.88;6.13;;;;;;;;;;5001799;28;21766;-72
2023/04/26 06:36:12;;;;;;;3.63;3.30;;;;;;;;;;5000049;28;20033;-72
2023/04/26 06:38:37;;;;;;;11.32;8.55;;;;;;;;;;5001419;28;20089;-73
2023/04/26 06:41:03;;;;;;;14.05;9.57;;;;;;;;;;5002283;28;20487;-71
2023/04/26 06:43:28;;;;;;;11.30;9.38;;;;;;;;;;5001907;28;20029;-71
2023/04/26 06:45:53;;;;;;;13.00;9.85;;;;;;;;;;5003087;28;20022;-71
2023/04/26 06:48:19;;;;;;;19.67;10.45;;;;;;;;;;5015344;28;20421;-74
2023/04/26 06:50:45;;;;;;;13.23;9.38;;;;;;;;;;5012341;28;20030;-71
2023/04/26 06:53:10;;;;;;;18.17;9.63;;;;;;;;;;5008511;28;20040;-72
2023/04/26 06:55:35;;;;;;;13.65;8.00;;;;;;;;;;5008401;28;20082;-71
2023/04/26 06:58:01;;;;;;;7.82;7.03;;;;;;;;;;5015213;28;20992;-75
2023/04/26 07:00:27;;;;;;;7.70;6.15;;;;;;;;;;5012051;28;20060;-71
2023/04/26 07:02:52;;;;;;;3.05;2.50;;;;;;;;;;5012568;28;20034;-71
2023/04/26 07:05:17;;;;;;;4.43;2.60;;;;;;;;;;5014569;28;20029;-72
2023/04/26 07:07:43;;;;;;;5.22;3.03;;;;;;;;;;5012863;28;20087;-71
2023/04/26 07:10:08;;;;;;;2.50;2.30;;;;;;;;;;5013878;28;20072;-71
2023/04/26 07:12:34;;;;;;;5.47;3.20;;;;;;;;;;5012522;28;20094;-75
2023/04/26 07:15:00;;;;;;;4.43;4.03;;;;;;;;;;5015257;28;20029;-72
2023/04/26 07:17:25;;;;;;;4.18;3.30;;;;;;;;;;5014389;28;20348;-72
2023/04/26 07:19:51;;;;;;;4.38;3.03;;;;;;;;;;5014165;28;20038;-71
2023/04/26 07:22:16;;;;;;;3.90;3.47;;;;;;;;;;5013440;28;20057;-73
2023/04/26 07:24:41;;;;;;;3.88;3.22;;;;;;;;;;5010148;28;20078;-73
2023/04/26 07:27:07;;;;;;;9.98;6.07;;;;;;;;;;5013902;28;20109;-71
2023/04/26 07:29:32;;;;;;;16.13;10.13;;;;;;;;;;5014256;28;20179;-72
2023/04/26 07:31:58;;;;;;;8.60;5.47;;;;;;;;;;5014584;28;20021;-70
2023/04/26 07:34:23;;;;;;;6.65;4.72;;;;;;;;;;5013344;28;20026;-73
2023/04/26 07:36:48;;;;;;;36.40;25.73;;;;;;;;;;5010782;28;20022;-71
2023/04/26 07:39:14;;;;;;;25.30;15.25;;;;;;;;;;5015685;28;20032;-74
2023/04/26 07:41:40;;;;;;;15.77;12.10;;;;;;;;;;5009656;28;20067;-72
2023/04/26 07:44:05;;;;;;;15.95;11.77;;;;;;;;;;5006736;28;20025;-71
2023/04/26 07:46:31;;;;;;;7.82;5.82;;;;;;;;;;5013736;28;20026;-73
2023/04/26 07:48:57;;;;;;;12.15;7.68;;;;;;;;;;5013775;28;20100;-70
2023/04/26 07:51:22;;;;;;;14.00;9.88;;;;;;;;;;5012585;28;20499;-71
2023/04/26 07:53:48;;;;;;;25.35;17.63;;;;;;;;;;5013594;28;21158;-73
2023/04/26 07:56:14;;;;;;;12.82;8.38;;;;;;;;;;5014716;28;20038;-72
2023/04/26 07:58:39;;;;;;;18.13;12.68;;;;;;;;;;5013489;28;20037;-72
2023/04/26 08:01:05;;;;;;;7.22;4.53;;;;;;;;;;5010087;28;20029;-72
2023/04/26 08:03:31;;;;;;;6.60;5.60;;;;;;;;;;5013681;28;20075;-71
2023/04/26 08:05:57;;;;;;;16.33;9.40;;;;;;;;;;5015251;28;20017;-70
2023/04/26 08:08:23;;;;;;;20.60;15.13;;;;;;;;;;5014327;28;20038;-74
2023/04/26 08:10:48;;;;;;;11.75;9.35;;;;;;;;;;5012402;28;20053;-72
2023/04/26 08:13:14;;;;;;;6.15;4.78;;;;;;;;;;5012480;28;20124;-73
2023/04/26 08:15:40;;;;;;;8.65;7.28;;;;;;;;;;5010849;28;20098;-71
2023/04/26 08:18:05;;;;;;;5.90;4.45;;;;;;;;;;5012305;28;20079;-71
2023/04/26 08:20:31;;;;;;;8.23;7.43;;;;;;;;;;5013914;28;20082;-71
2023/04/26 08:22:57;;;;;;;4.05;2.78;;;;;;;;;;5007858;28;20029;-71
2023/04/26 08:25:23;;;;;;;5.38;4.85;;;;;;;;;;4999340;28;20415;-71
2023/04/26 08:27:48;;;;;;;6.88;4.47;;;;;;;;;;5012049;28;20029;-73
2023/04/26 08:30:14;;;;;;;7.10;5.00;;;;;;;;;;5012470;28;20481;-74
2023/04/26 08:32:39;;;;;;;7.43;6.32;;;;;;;;;;5011491;28;20041;-71
2023/04/26 08:35:05;;;;;;;3.40;3.10;;;;;;;;;;5010329;28;20030;-71
2023/04/26 08:37:30;;;;;;;9.30;7.38;;;;;;;;;;5008426;28;20053;-74
2023/04/26 08:39:56;;;;;;;6.22;4.00;;;;;;;;;;5003489;28;20033;-71
2023/04/26 08:42:23;;;;;;;4.45;3.90;;;;;;;;;;5004021;28;20110;-72
2023/04/26 08:44:49;;;;;;;10.07;8.35;;;;;;;;;;5004409;28;20026;-72
2023/04/26 08:47:37;;;;;;;6.78;5.25;;;;;;;;;;5004173;28;20033;-71
2023/04/26 08:50:03;;;;;;;6.22;5.28;;;;;;;;;;5002141;28;20456;-72
2023/04/26 08:52:29;;;;;;;4.10;3.38;;;;;;;;;;5004320;28;20029;-72
2023/04/26 08:54:56;;;;;;;6.90;5.30;;;;;;;;;;5004066;28;20025;-71
2023/04/26 08:57:22;;;;;;;6.25;4.80;;;;;;;;;;5004453;28;20051;-72
2023/04/26 08:59:48;;;;;;;8.32;6.07;;;;;;;;;;5004011;28;20048;-71
2023/04/26 09:02:17;;;;;;;7.63;5.35;;;;;;;;;;5003338;28;20029;-71
2023/04/26 09:04:43;;;;;;;5.53;4.95;;;;;;;;;;5002706;28;20170;-71
2023/04/26 09:07:08;;;;;;;5.05;3.75;;;;;;;;;;5003858;28;20452;-73
2023/04/26 09:09:36;;;;;;;4.35;3.92;;;;;;;;;;5002602;28;20025;-71
2023/04/26 09:12:02;;;;;;;3.45;3.08;;;;;;;;;;5003346;28;20056;-74
2023/04/26 09:14:28;;;;;;;12.63;10.70;;;;;;;;;;5003669;28;20025;-72
2023/04/26 09:16:53;;;;;;;6.78;5.85;;;;;;;;;;5003021;28;20553;-72
2023/04/26 09:19:35;;;;;;;7.22;6.50;;;;;;;;;;5001963;28;20781;-71
2023/04/26 09:22:01;;;;;;;10.13;4.10;;;;;;;;;;5002688;28;20030;-75
2023/04/26 09:24:26;;;;;;;9.25;6.90;;;;;;;;;;5002986;28;20361;-72
2023/04/26 09:27:04;;;;;;;4.93;4.18;;;;;;;;;;5003497;28;20740;-71
2023/04/26 09:29:30;;;;;;;4.88;4.28;;;;;;;;;;5002341;28;20152;-72
2023/04/26 09:31:57;;;;;;;3.20;2.90;;;;;;;;;;5002414;28;20526;-72
2023/04/26 09:34:22;;;;;;;3.92;3.60;;;;;;;;;;5000039;28;20069;-72
2023/04/26 09:36:49;;;;;;;4.43;4.00;;;;;;;;;;4999271;28;20061;-75
2023/04/26 09:39:28;;;;;;;5.70;5.10;;;;;;;;;;5000854;28;20451;-72
2023/04/26 09:41:54;;;;;;;7.97;6.57;;;;;;;;;;5001402;28;20032;-71
2023/04/26 09:44:23;;;;;;;7.18;5.30;;;;;;;;;;5003299;28;20029;-73
2023/04/26 09:47:02;;;;;;;3.63;3.25;;;;;;;;;;4999953;28;20034;-71
2023/04/26 09:49:27;;;;;;;3.63;3.33;;;;;;;;;;5000616;28;20116;-73
2023/04/26 09:51:59;;;;;;;5.78;4.78;;;;;;;;;;5000908;28;20108;-75
2023/04/26 09:54:36;;;;;;;10.02;8.43;;;;;;;;;;5000236;28;20033;-72
2023/04/26 09:57:02;;;;;;;7.30;5.13;;;;;;;;;;5000875;28;20025;-72
2023/04/26 09:59:37;;;;;;;4.88;4.38;;;;;;;;;;5000815;28;20859;-72
2023/04/26 10:02:03;;;;;;;15.00;9.48;;;;;;;;;;5001502;28;20045;-72
2023/04/26 10:04:30;;;;;;;9.80;8.80;;;;;;;;;;5000403;28;20044;-72
2023/04/26 10:06:56;;;;;;;6.90;5.13;;;;;;;;;;5001612;28;20025;-73
2023/04/26 10:09:21;;;;;;;8.23;7.35;;;;;;;;;;5000642;28;20041;-75
2023/04/26 10:11:47;;;;;;;5.25;4.65;;;;;;;;;;5000054;28;20018;-76
2023/04/26 10:14:13;;;;;;;6.00;4.82;;;;;;;;;;5001419;28;20445;-76
2023/04/26 10:16:39;;;;;;;9.52;7.63;;;;;;;;;;4999944;28;20169;-73
2023/04/26 10:19:05;;;;;;;14.18;11.95;;;;;;;;;;5002431;28;20029;-72
2023/04/26 10:21:34;;;;;;;10.23;7.70;;;;;;;;;;5001475;28;20624;-77
2023/04/26 10:24:00;;;;;;;12.80;10.18;;;;;;;;;;5000812;28;20057;-73
2023/04/26 10:26:43;;;;;;;11.13;8.45;;;;;;;;;;5003714;28;20069;-71
2023/04/26 10:29:09;;;;;;;5.15;4.72;;;;;;;;;;4968580;28;1254413;-74
2023/04/26 10:31:53;;;;;;;7.10;6.03;;;;;;;;;;5012743;28;20126;-73
2023/04/26 10:34:21;;;;;;;4.20;3.80;;;;;;;;;;5016207;28;20776;-72
2023/04/26 10:37:05;;;;;;;8.27;7.40;;;;;;;;;;5013688;28;20429;-72
2023/04/26 10:39:30;;;;;;;6.05;5.53;;;;;;;;;;5015357;28;20116;-73
2023/04/26 10:42:22;;;;;;;9.82;5.20;;;;;;;;;;5011001;28;20128;-74
2023/04/26 10:44:57;;;;;;;5.93;5.10;;;;;;;;;;5004095;27;20045;-72
2023/04/26 10:47:24;;;;;;;9.52;7.60;;;;;;;;;;5012999;28;20021;-73
2023/04/26 10:49:50;;;;;;;7.50;6.80;;;;;;;;;;5011517;28;20040;-73
2023/04/26 10:52:19;;;;;;;5.68;5.18;;;;;;;;;;4996246;28;20029;-72
2023/04/26 10:54:54;;;;;;;5.43;4.85;;;;;;;;;;5006402;28;20034;-73
2023/04/26 10:57:20;;;;;;;13.85;11.35;;;;;;;;;;5013186;28;20087;-76
2023/04/26 11:00:04;;;;;;;9.93;8.75;;;;;;;;;;5012016;28;21098;-71
2023/04/26 11:02:46;;;;;;;9.88;8.88;;;;;;;;;;5012678;28;20053;-72
2023/04/26 11:05:30;;;;;;;14.02;11.48;;;;;;;;;;5013651;28;20098;-72
2023/04/26 11:08:08;;;;;;;11.98;9.80;;;;;;;;;;5013406;28;20409;-73
2023/04/26 11:10:36;;;;;;;11.20;10.00;;;;;;;;;;5014561;28;20125;-71
2023/04/26 11:13:04;;;;;;;10.60;9.52;;;;;;;;;;5015039;28;20032;-73
2023/04/26 11:15:30;;;;;;;14.40;12.90;;;;;;;;;;5013979;28;20041;-75
2023/04/26 11:17:56;;;;;;;9.52;8.63;;;;;;;;;;5011944;28;20018;-75
2023/04/26 11:20:21;;;;;;;11.88;10.65;;;;;;;;;;5013974;28;20043;-71
2023/04/26 11:22:47;;;;;;;11.60;10.10;;;;;;;;;;5014475;28;20069;-74
2023/04/26 11:25:12;;;;;;;9.43;8.52;;;;;;;;;;5013840;28;20037;-74
2023/04/26 11:27:38;;;;;;;9.10;8.10;;;;;;;;;;5015529;28;20415;-71
2023/04/26 11:30:03;;;;;;;9.20;8.32;;;;;;;;;;5014077;28;20429;-71
2023/04/26 11:32:29;;;;;;;11.65;10.00;;;;;;;;;;5014991;28;20037;-71
2023/04/26 11:34:54;;;;;;;10.60;7.68;;;;;;;;;;5014352;28;20029;-71
2023/04/26 11:37:20;;;;;;;6.45;5.82;;;;;;;;;;5013769;28;20027;-74
2023/04/26 11:39:45;;;;;;;8.73;7.05;;;;;;;;;;5014454;28;20025;-71
2023/04/26 11:42:11;;;;;;;11.52;7.60;;;;;;;;;;5015570;28;20033;-72
2023/04/26 11:44:37;;;;;;;7.18;6.57;;;;;;;;;;5014113;28;20746;-72
2023/04/26 11:47:03;;;;;;;7.53;5.90;;;;;;;;;;5013186;28;20037;-71
2023/04/26 11:49:35;;;;;;;6.45;5.85;;;;;;;;;;5013219;28;20069;-72
2023/04/26 11:52:01;;;;;;;6.57;5.05;;;;;;;;;;5012544;28;20373;-73
2023/04/26 11:54:30;;;;;;;5.72;5.15;;;;;;;;;;5011083;28;20112;-75
2023/04/26 11:56:56;;;;;;;5.60;5.10;;;;;;;;;;5014727;28;20014;-74
2023/04/26 11:59:23;;;;;;;6.43;5.00;;;;;;;;;;5014435;28;20069;-73
2023/04/26 12:01:50;;;;;;;5.97;5.35;;;;;;;;;;5012004;28;20036;-72
2023/04/26 12:04:15;;;;;;;8.52;6.50;;;;;;;;;;5011512;28;20478;-72
2023/04/26 12:06:41;;;;;;;8.68;6.75;;;;;;;;;;5014053;28;20576;-71
2023/04/26 12:09:10;;;;;;;8.93;7.60;;;;;;;;;;5013373;28;20030;-76
2023/04/26 12:11:35;;;;;;;14.60;13.00;;;;;;;;;;5012944;28;20022;-72
2023/04/26 12:14:01;;;;;;;16.52;12.82;;;;;;;;;;5015180;28;20033;-71
2023/04/26 12:16:27;;;;;;;14.18;11.00;;;;;;;;;;5013674;28;20072;-73
2023/04/26 12:18:53;;;;;;;20.67;14.32;;;;;;;;;;5013709;28;20108;-72
2023/04/26 12:21:19;;;;;;;7.72;6.88;;;;;;;;;;5014941;28;20055;-72
2023/04/26 12:23:46;;;;;;;7.85;7.10;;;;;;;;;;5012590;28;20425;-73
2023/04/26 12:26:12;;;;;;;10.38;8.63;;;;;;;;;;5012459;28;20025;-75
2023/04/26 12:28:37;;;;;;;10.18;8.15;;;;;;;;;;5012987;28;20091;-72
2023/04/26 12:31:03;;;;;;;19.58;13.23;;;;;;;;;;5012562;28;20041;-76
2023/04/26 12:33:29;;;;;;;24.90;17.65;;;;;;;;;;5014343;28;20033;-73
2023/04/26 12:35:56;;;;;;;15.80;12.38;;;;;;;;;;5012422;28;20040;-72
2023/04/26 12:38:22;;;;;;;13.63;11.63;;;;;;;;;;5014925;28;20033;-76
2023/04/26 12:40:47;;;;;;;8.90;8.10;;;;;;;;;;5009638;28;20040;-72
2023/04/26 12:43:12;;;;;;;8.10;7.30;;;;;;;;;;5014020;28;20381;-72
2023/04/26 12:45:38;;;;;;;5.10;4.55;;;;;;;;;;5013471;28;20029;-72
2023/04/26 12:48:04;;;;;;;5.65;5.15;;;;;;;;;;5012545;28;20022;-72
2023/04/26 12:50:30;;;;;;;4.75;4.35;;;;;;;;;;5015019;28;20030;-72
2023/04/26 12:52:55;;;;;;;4.85;4.40;;;;;;;;;;5014348;28;20113;-72
2023/04/26 12:55:20;;;;;;;5.68;5.18;;;;;;;;;;5013054;28;20030;-71
2023/04/26 12:57:46;;;;;;;14.40;12.57;;;;;;;;;;5011382;28;20053;-75
2023/04/26 13:00:12;;;;;;;10.23;7.97;;;;;;;;;;5014181;28;20468;-72
2023/04/26 13:02:38;;;;;;;17.42;13.45;;;;;;;;;;5013771;28;20171;-72
2023/04/26 13:05:05;;;;;;;10.32;9.13;;;;;;;;;;5010944;28;20512;-71
2023/04/26 13:07:31;;;;;;;11.98;10.30;;;;;;;;;;5013189;28;20120;-72
2023/04/26 13:09:57;;;;;;;15.40;13.00;;;;;;;;;;5010928;28;20018;-76
2023/04/26 13:12:22;;;;;;;10.80;8.27;;;;;;;;;;5012157;28;20352;-73
2023/04/26 13:14:48;;;;;;;12.15;9.52;;;;;;;;;;5011475;28;20036;-74
2023/04/26 13:17:13;;;;;;;14.38;11.55;;;;;;;;;;5013632;28;20401;-71
2023/04/26 13:19:38;;;;;;;11.30;9.05;;;;;;;;;;5003027;28;20021;-71
2023/04/26 13:22:06;;;;;;;15.27;11.73;;;;;;;;;;5011508;28;20730;-71
2023/04/26 13:24:32;;;;;;;25.60;15.90;;;;;;;;;;5015852;28;20082;-75
2023/04/26 13:26:58;;;;;;;15.80;12.05;;;;;;;;;;5017014;28;20050;-74
2023/04/26 13:29:24;;;;;;;13.43;9.93;;;;;;;;;;5012606;28;20056;-73
2023/04/26 13:31:49;;;;;;;10.35;6.88;;;;;;;;;;5017902;28;20025;-72
2023/04/26 13:34:15;;;;;;;8.38;6.50;;;;;;;;;;5007199;28;20033;-71
2023/04/26 13:36:41;;;;;;;13.18;11.10;;;;;;;;;;5010905;28;20034;-71
2023/04/26 13:39:06;;;;;;;12.77;9.85;;;;;;;;;;5016333;28;20025;-73
2023/04/26 13:41:33;;;;;;;18.13;13.55;;;;;;;;;;5008669;28;20033;-73
2023/04/26 13:44:02;;;;;;;14.55;12.65;;;;;;;;;;5001464;28;20030;-72
2023/04/26 13:46:28;;;;;;;8.35;7.45;;;;;;;;;;5003481;28;20769;-74
2023/04/26 13:48:54;;;;;;;9.45;7.88;;;;;;;;;;5014998;28;20112;-71
2023/04/26 13:51:19;;;;;;;12.00;10.75;;;;;;;;;;5014588;28;20029;-72
2023/04/26 13:53:45;;;;;;;9.32;7.50;;;;;;;;;;5018737;28;20040;-74
2023/04/26 13:56:10;;;;;;;12.77;9.63;;;;;;;;;;5017620;28;20116;-71
2023/04/26 13:58:36;;;;;;;12.10;10.73;;;;;;;;;;5007683;28;20065;-74
2023/04/26 14:01:02;;;;;;;8.65;7.60;;;;;;;;;;5012678;28;20060;-73
2023/04/26 14:03:27;;;;;;;27.25;21.05;;;;;;;;;;5014203;28;20393;-72
2023/04/26 14:05:53;;;;;;;12.80;11.13;;;;;;;;;;5005630;28;20033;-75
2023/04/26 14:08:18;;;;;;;19.75;13.63;;;;;;;;;;5016411;28;20414;-71
2023/04/26 14:10:43;;;;;;;11.07;9.13;;;;;;;;;;5015521;28;20863;-71
2023/04/26 14:13:09;;;;;;;9.35;7.95;;;;;;;;;;5017186;28;20487;-70
2023/04/26 14:15:35;;;;;;;12.88;10.40;;;;;;;;;;5017208;28;20082;-71
2023/04/26 14:18:00;;;;;;;29.48;18.95;;;;;;;;;;5015005;28;20030;-71
2023/04/26 14:20:25;;;;;;;12.00;7.15;;;;;;;;;;5014577;28;20101;-72